Flight Track Log - Related Links

Times and Time Zones

All times are in EDT time to prevent confusion due to time zone crossing. See the SWA3143 flight status page for this flight to view local times or setup timezone preferences in your user account.

Time Position Orientation Groundspeed Altitude Reporting Facility
EDT Latitude Longitude Course Direction KTS MPH feet Rate Location/Type
Sat 04:59:13 PM 38.1192 -85.7306 121° Southeast 183 211 37,000  Level Indianapolis Center
Sat 05:00:15 PM 38.0750 -85.6881 143° Southeast 228 262 4,500 -14,226 Descending Indianapolis Center
Sat 05:01:17 PM 38.0736 -85.5886 91° East 272 313 7,600 3,024 Climbing Indianapolis Center
Sat 05:02:18 PM 38.0739 -85.4792 90° East 299 344 10,700 2,976 Climbing Indianapolis Center
Sat 05:03:20 PM 38.0733 -85.3533 90° East 343 395 13,700 2,976 Climbing Indianapolis Center
Sat 05:04:00 PM 37.9834 -84.9813 121° Southeast  Level FlightAware Approximate
Sat 05:04:21 PM 38.0628 -85.2158 96° East 382 440 16,800  Level Indianapolis Center
Sat 05:05:23 PM 38.0331 -85.0717 105° East 401 461 19,600 2,829 Climbing Indianapolis Center
Sat 05:06:24 PM 37.9678 -84.9469 124° Southeast 420 483 22,600 2,634 Climbing Indianapolis Center
Sat 05:07:26 PM 37.9047 -84.8175 122° Southeast 426 490 25,000 2,341 Climbing Indianapolis Center
Sat 05:08:27 PM 37.8158 -84.7214 139° Southeast 429 494 27,400 2,195 Climbing Indianapolis Center
Sat 05:09:29 PM 37.6831 -84.6614 160° South 432 497 29,500 1,756 Climbing Indianapolis Center
Sat 05:10:30 PM 37.5647 -84.6092 161° South 444 511 31,000 1,366 Climbing Indianapolis Center
Sat 05:11:32 PM 37.4439 -84.5547 160° South 457 526 32,300 1,366 Climbing Indianapolis Center
Sat 05:12:33 PM 37.3186 -84.4994 161° South 471 542 33,800 1,317 Climbing Indianapolis Center
Sat 05:13:35 PM 37.1944 -84.4444 161° South 471 542 35,000 1,366 Climbing Indianapolis Center
Sat 05:14:36 PM 37.0700 -84.3903 161° South 472 543 36,600 976 Climbing Indianapolis Center
Sat 05:15:38 PM 36.9467 -84.3394 162° South 471 542 37,000 195 Climbing Indianapolis Center
Sat 05:16:39 PM 36.8025 -84.2792 161° South 468 539 37,000  Level Indianapolis Center
Sat 05:17:41 PM 36.6778 -84.2242 161° South 469 540 37,000  Level Indianapolis Center
Sat 05:18:42 PM 36.5528 -84.1703 161° South 473 544 37,000  Level Indianapolis Center
Sat 05:19:44 PM 36.4331 -84.1183 161° South 474 545 37,000  Level Indianapolis Center
Sat 05:20:46 PM 36.3069 -84.0642 161° South 475 547 37,000  Level Indianapolis Center
Sat 05:21:47 PM 36.1800 -84.0244 166° South 474 545 37,000  Level Indianapolis Center
Sat 05:22:22 PM 36.1022 -84.0361 187° South 454 522 37,000  Level Atlanta Center
Sat 05:23:22 PM 35.9831 -84.0567 188° South 436 502 37,000  Level Atlanta Center
Sat 05:24:22 PM 35.8664 -84.0747 187° South 436 502 37,000  Level Atlanta Center
Sat 05:25:22 PM 35.7475 -84.0975 189° South 436 502 37,000  Level Atlanta Center
Sat 05:26:22 PM 35.6286 -84.1156 187° South 436 502 37,000  Level Atlanta Center
Sat 05:27:22 PM 35.5117 -84.1331 187° South 431 496 37,000  Level Atlanta Center
Sat 05:28:22 PM 35.3928 -84.1533 188° South 431 496 37,000  Level Atlanta Center
Sat 05:29:22 PM 35.2758 -84.1736 188° South 431 496 37,000  Level Atlanta Center
Sat 05:30:22 PM 35.1592 -84.1911 187° South 431 496 37,000  Level Atlanta Center
Sat 05:31:22 PM 35.0400 -84.2114 188° South 431 496 37,000  Level Atlanta Center
Sat 05:32:22 PM 34.9106 -84.2286 186° South 426 490 37,000  Level Atlanta Center
Sat 05:33:22 PM 34.7917 -84.2486 188° South 426 490 37,000  Level Atlanta Center
Sat 05:34:22 PM 34.6728 -84.2686 188° South 433 498 37,000  Level Atlanta Center
Sat 05:35:22 PM 34.5683 -84.2861 188° South 427 491 37,000  Level Atlanta Center
Sat 05:36:22 PM 34.4536 -84.3058 188° South 427 491 37,000  Level Atlanta Center
Sat 05:37:22 PM 34.3386 -84.3231 187° South 427 491 37,000  Level Atlanta Center
Sat 05:38:22 PM 34.2258 -84.3403 187° South 422 486 37,000  Level Atlanta Center
Sat 05:39:22 PM 34.1006 -84.3625 188° South 422 486 37,000  Level Atlanta Center
Sat 05:40:22 PM 33.9858 -84.3819 188° South 422 486 37,000 400 Level Atlanta Center
Sat 05:41:22 PM 33.8750 -84.3992 187° South 417 480 37,800 700 Climbing Atlanta Center
Sat 05:42:22 PM 33.7625 -84.4161 187° South 417 480 38,400 500 Climbing Atlanta Center
Sat 05:43:22 PM 33.6433 -84.4331 187° South 418 481 38,800 300 Climbing Atlanta Center
Sat 05:44:22 PM 33.5306 -84.4375 182° South 440 506 39,000 100 Climbing Atlanta Center
Sat 05:45:22 PM 33.4033 -84.4344 179° South 461 531 39,000  Level Atlanta Center
Sat 05:46:22 PM 33.2781 -84.4339 180° South 454 522 39,000  Level Atlanta Center
Sat 05:47:22 PM 33.1550 -84.4308 179° South 454 522 39,000  Level Atlanta Center
Sat 05:48:22 PM 33.0317 -84.4278 179° South 448 516 39,000  Level Atlanta Center
Sat 05:49:22 PM 32.9086 -84.4272 180° South 441 507 39,000  Level Atlanta Center
Sat 05:50:22 PM 32.7772 -84.4192 177° South 436 502 39,000  Level Atlanta Center
Sat 05:51:22 PM 32.6561 -84.4164 179° South 436 502 39,000  Level Atlanta Center
Sat 05:52:22 PM 32.5372 -84.4158 180° South 441 507 39,000  Level Atlanta Center
Sat 05:53:54 PM 32.3536 -84.4100 178° South 440 506 39,000  Level Jacksonville Center
Sat 05:54:54 PM 32.2367 -84.4106 180° South 417 480 39,000  Level Jacksonville Center
Sat 05:55:54 PM 32.1178 -84.4083 179° South 417 480 39,000  Level Jacksonville Center
Sat 05:56:54 PM 31.9989 -84.4064 179° South 422 486 39,000  Level Jacksonville Center
Sat 05:57:54 PM 31.8819 -84.4022 178° South 422 486 39,000  Level Jacksonville Center
Sat 05:58:54 PM 31.7631 -84.4003 179° South 422 486 39,000  Level Jacksonville Center
Sat 05:59:54 PM 31.6439 -84.3958 178° South 422 486 39,000  Level Jacksonville Center
Sat 06:00:54 PM 31.5250 -84.3964 180° South 422 486 39,000  Level Jacksonville Center
Sat 06:01:54 PM 31.4061 -84.3919 178° South 422 486 39,000  Level Jacksonville Center
Sat 06:02:54 PM 31.2869 -84.3900 179° South 422 486 39,000  Level Jacksonville Center
Sat 06:03:54 PM 31.1661 -84.3808 176° South 422 486 39,000  Level Jacksonville Center
Sat 06:04:54 PM 31.0433 -84.3403 164° South 433 498 39,000  Level Jacksonville Center
Sat 06:05:54 PM 30.9206 -84.2947 162° South 449 517 39,000  Level Jacksonville Center
Sat 06:06:54 PM 30.7981 -84.2517 163° South 459 528 39,000  Level Jacksonville Center
Sat 06:07:54 PM 30.6711 -84.2042 162° South 464 534 39,000  Level Jacksonville Center
Sat 06:08:54 PM 30.5733 -84.1664 162° South 464 534 39,000  Level Jacksonville Center
Sat 06:09:54 PM 30.4297 -84.1164 163° South 459 528 39,000  Level Jacksonville Center
Sat 06:10:54 PM 30.3028 -84.0692 162° South 464 534 39,000  Level Jacksonville Center
Sat 06:11:54 PM 30.1800 -84.0267 163° South 464 534 39,000  Level Jacksonville Center
Sat 06:12:54 PM 30.0553 -83.9822 163° South 469 540 39,000 -350 Level Jacksonville Center
Sat 06:13:54 PM 29.9325 -83.9375 162° South 469 540 38,300 -850 Descending Jacksonville Center
Sat 06:14:54 PM 29.8158 -83.8908 161° South 464 534 37,300 -1,400 Descending Jacksonville Center
Sat 06:15:54 PM 29.6975 -83.8178 152° Southeast 464 534 35,500 -2,000 Descending Jacksonville Center
Sat 06:16:54 PM 29.5811 -83.7450 151° Southeast 469 540 33,300 -2,100 Descending Jacksonville Center
Sat 06:17:54 PM 29.4708 -83.6725 150° Southeast 464 534 31,300 -1,950 Descending Jacksonville Center
Sat 06:18:54 PM 29.3606 -83.6025 151° Southeast 458 527 29,400 -1,900 Descending Jacksonville Center
Sat 06:19:54 PM 29.2567 -83.5328 150° Southeast 447 514 27,500 -1,400 Descending Jacksonville Center
Sat 06:20:54 PM 29.1547 -83.4681 151° Southeast 435 501 26,600 -1,350 Descending Jacksonville Center
Sat 06:21:54 PM 29.0506 -83.4008 151° Southeast 429 494 24,800 -1,800 Descending Jacksonville Center
Sat 06:22:54 PM 28.9525 -83.3411 152° Southeast 417 480 23,000 -1,800 Descending Jacksonville Center
Sat 06:23:54 PM 28.8569 -83.2814 151° Southeast 404 465 21,200 -1,750 Descending Jacksonville Center
Sat 06:24:54 PM 28.7650 -83.2219 150° Southeast 392 451 19,500 -1,700 Descending Jacksonville Center
Sat 06:25:54 PM 28.6733 -83.1622 150° Southeast 386 444 17,800 -1,700 Descending Jacksonville Center
Sat 06:26:54 PM 28.5858 -83.1100 152° Southeast 370 426 16,100 -1,714 Descending Jacksonville Center
Sat 06:27:32 PM 28.5333 -83.0833 156° South 356 410 15,000 -1,776 Descending Tampa TRACON
Sat 06:28:32 PM 28.4500 -83.0167 145° Southeast 348 400 13,200 -1,400 Descending Tampa TRACON
Sat 06:29:32 PM 28.3667 -82.9667 152° Southeast 329 379 12,200 -1,250 Descending Tampa TRACON
Sat 06:30:32 PM 28.2833 -82.9167 152° Southeast 306 352 10,700 -1,450 Descending Tampa TRACON
Sat 06:31:32 PM 28.2667 -82.8333 103° East 314 361 9,300 -1,350 Descending Tampa TRACON
Sat 06:32:32 PM 28.2833 -82.7333 79° East 306 352 8,000 -1,450 Descending Tampa TRACON
Sat 06:33:32 PM 28.2833 -82.6333 90° East 291 335 6,400 -1,600 Descending Tampa TRACON
Sat 06:34:32 PM 28.2333 -82.5833 139° Southeast 256 295 4,800 -1,700 Descending Tampa TRACON
Sat 06:35:32 PM 28.1667 -82.5500 156° South 255 293 3,000 -1,000 Descending Tampa TRACON
Sat 06:36:32 PM 28.1167 -82.5333 164° South 202 232 2,800 -700 Descending Tampa TRACON
Sat 06:37:32 PM 28.0667 -82.5333 180° South 163 188 1,600 -1,000 Descending Tampa TRACON
Sat 06:38:38 PM 28.0167 -82.5333 180° South 142 163 700 -818 Descending Tampa TRACON

Login

Don't have an account? Register now (free) for customized features, flight alerts, and more!